Camp Mabry, Texas
Current Conditions -  °F | °C
As of 2:51 PM on Sunday 23 Nov 2014 (Local Time) from KATT Reporting Station
Clear Clear  
Wind Chill: 80°   Ceiling: Unl
Heat Index: 80°   Visibility: 10mi
Dew Point: 40°   Wind: 6mph
Humidity: 24%   Direction: NA
Pressure: 29.53"   Gusts: 17mph
Location:  30.3482°N, 97.7679°W
Report Text: KATT 232051Z AUTO VRB05G15KT 10SM CLR 27/04 A2953 RMK AO2 SLP993 T02670044 56025
Loading
Personal Weather Stations






























Interactive Weather Map New forecast layout! Learn more

10-Day Weather Forecast

Advertisements
Track Severe Weather on mobile